sensor_id;sensor_type;location;lat;lon;timestamp;P1;durP1;ratioP1;P2;durP2;ratioP2
10114;SDS011;5097;43.260;27.812;2023-04-24T00:02:17;11.83;;;7.23;;
10114;SDS011;5097;43.260;27.812;2023-04-24T00:05:02;10.73;;;7.47;;
10114;SDS011;5097;43.260;27.812;2023-04-24T00:07:46;12.70;;;7.43;;
10114;SDS011;5097;43.260;27.812;2023-04-24T00:10:30;12.90;;;8.40;;
10114;SDS011;5097;43.260;27.812;2023-04-24T00:13:14;16.77;;;9.23;;
10114;SDS011;5097;43.260;27.812;2023-04-24T00:15:58;13.07;;;7.67;;
10114;SDS011;5097;43.260;27.812;2023-04-24T00:18:43;14.63;;;7.40;;
10114;SDS011;5097;43.260;27.812;2023-04-24T00:21:30;13.03;;;7.27;;
10114;SDS011;5097;43.260;27.812;2023-04-24T00:24:14;15.27;;;8.03;;
10114;SDS011;5097;43.260;27.812;2023-04-24T00:26:58;13.27;;;7.63;;
10114;SDS011;5097;43.260;27.812;2023-04-24T00:29:43;14.00;;;7.50;;
10114;SDS011;5097;43.260;27.812;2023-04-24T00:32:27;9.17;;;6.93;;
10114;SDS011;5097;43.260;27.812;2023-04-24T00:35:12;10.13;;;7.13;;
10114;SDS011;5097;43.260;27.812;2023-04-24T00:37:57;10.23;;;7.50;;
10114;SDS011;5097;43.260;27.812;2023-04-24T00:40:41;11.70;;;7.60;;
10114;SDS011;5097;43.260;27.812;2023-04-24T00:43:25;10.73;;;7.10;;
10114;SDS011;5097;43.260;27.812;2023-04-24T00:46:09;11.27;;;7.83;;
10114;SDS011;5097;43.260;27.812;2023-04-24T00:48:53;10.73;;;7.43;;
10114;SDS011;5097;43.260;27.812;2023-04-24T00:51:40;12.93;;;7.50;;
10114;SDS011;5097;43.260;27.812;2023-04-24T00:54:28;12.87;;;7.60;;
10114;SDS011;5097;43.260;27.812;2023-04-24T00:57:12;13.50;;;7.30;;
10114;SDS011;5097;43.260;27.812;2023-04-24T00:59:57;11.67;;;7.03;;
10114;SDS011;5097;43.260;27.812;2023-04-24T01:02:41;13.27;;;7.00;;
10114;SDS011;5097;43.260;27.812;2023-04-24T01:05:27;8.10;;;6.90;;
10114;SDS011;5097;43.260;27.812;2023-04-24T01:08:13;14.03;;;7.50;;
10114;SDS011;5097;43.260;27.812;2023-04-24T01:10:58;11.67;;;7.43;;
10114;SDS011;5097;43.260;27.812;2023-04-24T01:13:41;12.53;;;7.70;;
10114;SDS011;5097;43.260;27.812;2023-04-24T01:16:25;17.30;;;7.70;;
10114;SDS011;5097;43.260;27.812;2023-04-24T01:19:10;10.00;;;7.70;;
10114;SDS011;5097;43.260;27.812;2023-04-24T01:21:54;13.53;;;7.63;;
10114;SDS011;5097;43.260;27.812;2023-04-24T01:24:46;11.10;;;8.80;;
10114;SDS011;5097;43.260;27.812;2023-04-24T01:27:30;16.27;;;9.67;;
10114;SDS011;5097;43.260;27.812;2023-04-24T01:30:14;10.53;;;7.27;;
10114;SDS011;5097;43.260;27.812;2023-04-24T01:32:59;13.83;;;7.47;;
10114;SDS011;5097;43.260;27.812;2023-04-24T01:35:43;10.43;;;7.23;;
10114;SDS011;5097;43.260;27.812;2023-04-24T01:38:27;11.20;;;8.40;;
10114;SDS011;5097;43.260;27.812;2023-04-24T01:41:13;11.33;;;8.73;;
10114;SDS011;5097;43.260;27.812;2023-04-24T01:43:56;25.80;;;14.40;;
10114;SDS011;5097;43.260;27.812;2023-04-24T01:46:41;9.63;;;8.03;;
10114;SDS011;5097;43.260;27.812;2023-04-24T01:49:25;20.50;;;11.50;;
10114;SDS011;5097;43.260;27.812;2023-04-24T01:52:09;13.13;;;8.40;;
10114;SDS011;5097;43.260;27.812;2023-04-24T01:54:53;14.70;;;7.87;;
10114;SDS011;5097;43.260;27.812;2023-04-24T01:57:39;15.27;;;7.53;;
10114;SDS011;5097;43.260;27.812;2023-04-24T02:00:23;13.90;;;9.67;;
10114;SDS011;5097;43.260;27.812;2023-04-24T02:03:08;14.23;;;7.67;;
10114;SDS011;5097;43.260;27.812;2023-04-24T02:05:52;14.57;;;9.90;;
10114;SDS011;5097;43.260;27.812;2023-04-24T02:08:39;9.13;;;7.03;;
10114;SDS011;5097;43.260;27.812;2023-04-24T02:11:23;13.10;;;7.63;;
10114;SDS011;5097;43.260;27.812;2023-04-24T02:14:08;11.97;;;7.80;;
10114;SDS011;5097;43.260;27.812;2023-04-24T02:16:55;14.53;;;8.13;;
10114;SDS011;5097;43.260;27.812;2023-04-24T02:19:39;16.47;;;9.47;;
10114;SDS011;5097;43.260;27.812;2023-04-24T02:22:25;15.60;;;9.00;;
10114;SDS011;5097;43.260;27.812;2023-04-24T02:25:09;11.80;;;8.43;;
10114;SDS011;5097;43.260;27.812;2023-04-24T02:27:53;16.50;;;8.63;;
10114;SDS011;5097;43.260;27.812;2023-04-24T02:30:38;19.50;;;8.20;;
10114;SDS011;5097;43.260;27.812;2023-04-24T02:33:22;11.97;;;7.93;;
10114;SDS011;5097;43.260;27.812;2023-04-24T02:36:06;16.20;;;8.27;;
10114;SDS011;5097;43.260;27.812;2023-04-24T02:38:49;12.50;;;8.40;;
10114;SDS011;5097;43.260;27.812;2023-04-24T02:41:33;14.87;;;8.37;;
10114;SDS011;5097;43.260;27.812;2023-04-24T02:44:17;13.20;;;7.10;;
10114;SDS011;5097;43.260;27.812;2023-04-24T02:47:03;16.70;;;8.63;;
10114;SDS011;5097;43.260;27.812;2023-04-24T02:49:47;15.50;;;9.67;;
10114;SDS011;5097;43.260;27.812;2023-04-24T02:52:30;12.50;;;9.70;;
10114;SDS011;5097;43.260;27.812;2023-04-24T02:55:14;15.53;;;9.93;;
10114;SDS011;5097;43.260;27.812;2023-04-24T02:57:58;15.33;;;8.47;;
10114;SDS011;5097;43.260;27.812;2023-04-24T03:00:42;11.47;;;9.10;;
10114;SDS011;5097;43.260;27.812;2023-04-24T03:03:28;11.70;;;8.20;;
10114;SDS011;5097;43.260;27.812;2023-04-24T03:06:12;12.20;;;7.60;;
10114;SDS011;5097;43.260;27.812;2023-04-24T03:08:56;12.63;;;7.97;;
10114;SDS011;5097;43.260;27.812;2023-04-24T03:11:41;11.20;;;8.10;;
10114;SDS011;5097;43.260;27.812;2023-04-24T03:14:24;14.57;;;8.20;;
10114;SDS011;5097;43.260;27.812;2023-04-24T03:17:08;12.97;;;9.17;;
10114;SDS011;5097;43.260;27.812;2023-04-24T03:19:54;11.73;;;8.83;;
10114;SDS011;5097;43.260;27.812;2023-04-24T03:22:37;11.67;;;8.23;;
10114;SDS011;5097;43.260;27.812;2023-04-24T03:25:23;11.63;;;8.53;;
10114;SDS011;5097;43.260;27.812;2023-04-24T03:28:07;13.03;;;8.53;;
10114;SDS011;5097;43.260;27.812;2023-04-24T03:30:58;10.20;;;7.77;;
10114;SDS011;5097;43.260;27.812;2023-04-24T03:33:46;13.73;;;7.97;;
10114;SDS011;5097;43.260;27.812;2023-04-24T03:36:32;11.13;;;8.53;;
10114;SDS011;5097;43.260;27.812;2023-04-24T03:39:17;10.53;;;8.00;;
10114;SDS011;5097;43.260;27.812;2023-04-24T03:42:07;14.47;;;8.17;;
10114;SDS011;5097;43.260;27.812;2023-04-24T03:45:02;13.17;;;7.90;;
10114;SDS011;5097;43.260;27.812;2023-04-24T03:47:49;13.03;;;8.27;;
10114;SDS011;5097;43.260;27.812;2023-04-24T03:50:34;9.10;;;7.93;;
10114;SDS011;5097;43.260;27.812;2023-04-24T03:53:19;12.07;;;7.80;;
10114;SDS011;5097;43.260;27.812;2023-04-24T03:56:04;17.90;;;8.40;;
10114;SDS011;5097;43.260;27.812;2023-04-24T03:58:49;8.57;;;7.50;;
10114;SDS011;5097;43.260;27.812;2023-04-24T04:01:33;11.00;;;7.87;;
10114;SDS011;5097;43.260;27.812;2023-04-24T04:04:27;8.70;;;6.67;;
10114;SDS011;5097;43.260;27.812;2023-04-24T04:07:12;13.13;;;7.13;;
10114;SDS011;5097;43.260;27.812;2023-04-24T04:09:57;9.00;;;6.77;;
10114;SDS011;5097;43.260;27.812;2023-04-24T04:12:41;18.77;;;9.10;;
10114;SDS011;5097;43.260;27.812;2023-04-24T04:15:25;17.97;;;9.03;;
10114;SDS011;5097;43.260;27.812;2023-04-24T04:18:10;11.93;;;8.57;;
10114;SDS011;5097;43.260;27.812;2023-04-24T04:20:54;13.00;;;8.53;;
10114;SDS011;5097;43.260;27.812;2023-04-24T04:23:39;15.27;;;8.13;;
10114;SDS011;5097;43.260;27.812;2023-04-24T04:26:35;17.70;;;8.33;;
10114;SDS011;5097;43.260;27.812;2023-04-24T04:29:22;15.60;;;8.50;;
10114;SDS011;5097;43.260;27.812;2023-04-24T04:32:07;21.70;;;8.43;;
10114;SDS011;5097;43.260;27.812;2023-04-24T04:34:53;18.73;;;8.87;;
10114;SDS011;5097;43.260;27.812;2023-04-24T04:37:40;11.77;;;9.03;;
10114;SDS011;5097;43.260;27.812;2023-04-24T04:40:50;15.30;;;9.10;;
10114;SDS011;5097;43.260;27.812;2023-04-24T04:43:38;20.50;;;8.80;;
10114;SDS011;5097;43.260;27.812;2023-04-24T04:46:23;12.80;;;8.73;;
10114;SDS011;5097;43.260;27.812;2023-04-24T04:49:16;14.47;;;7.93;;
10114;SDS011;5097;43.260;27.812;2023-04-24T04:52:00;11.70;;;8.00;;
10114;SDS011;5097;43.260;27.812;2023-04-24T04:54:46;11.90;;;7.70;;
10114;SDS011;5097;43.260;27.812;2023-04-24T04:57:30;17.43;;;8.10;;
10114;SDS011;5097;43.260;27.812;2023-04-24T05:00:16;15.37;;;9.03;;
10114;SDS011;5097;43.260;27.812;2023-04-24T05:03:05;9.27;;;8.00;;
10114;SDS011;5097;43.260;27.812;2023-04-24T05:06:06;9.97;;;7.87;;
10114;SDS011;5097;43.260;27.812;2023-04-24T05:08:52;12.30;;;8.20;;
10114;SDS011;5097;43.260;27.812;2023-04-24T05:12:02;14.90;;;8.40;;
10114;SDS011;5097;43.260;27.812;2023-04-24T05:14:51;15.33;;;7.80;;
10114;SDS011;5097;43.260;27.812;2023-04-24T05:17:36;12.70;;;7.43;;
10114;SDS011;5097;43.260;27.812;2023-04-24T05:20:22;14.00;;;7.47;;
10114;SDS011;5097;43.260;27.812;2023-04-24T05:23:07;14.80;;;6.77;;
10114;SDS011;5097;43.260;27.812;2023-04-24T05:25:53;12.57;;;6.70;;
10114;SDS011;5097;43.260;27.812;2023-04-24T05:28:37;15.17;;;6.80;;
10114;SDS011;5097;43.260;27.812;2023-04-24T05:31:25;11.53;;;6.83;;
10114;SDS011;5097;43.260;27.812;2023-04-24T05:34:11;18.03;;;7.03;;
10114;SDS011;5097;43.260;27.812;2023-04-24T05:36:58;10.00;;;6.67;;
10114;SDS011;5097;43.260;27.812;2023-04-24T05:39:42;11.10;;;6.57;;
10114;SDS011;5097;43.260;27.812;2023-04-24T05:42:26;11.07;;;6.57;;
10114;SDS011;5097;43.260;27.812;2023-04-24T05:45:11;9.30;;;7.03;;
10114;SDS011;5097;43.260;27.812;2023-04-24T05:47:58;14.40;;;6.80;;
10114;SDS011;5097;43.260;27.812;2023-04-24T05:50:44;13.03;;;6.97;;
10114;SDS011;5097;43.260;27.812;2023-04-24T05:53:30;10.30;;;6.80;;
10114;SDS011;5097;43.260;27.812;2023-04-24T05:56:14;14.87;;;7.73;;
10114;SDS011;5097;43.260;27.812;2023-04-24T05:58:58;13.40;;;6.80;;
10114;SDS011;5097;43.260;27.812;2023-04-24T06:01:43;11.87;;;6.33;;
10114;SDS011;5097;43.260;27.812;2023-04-24T06:04:33;8.67;;;6.73;;
10114;SDS011;5097;43.260;27.812;2023-04-24T06:07:19;10.60;;;5.93;;
10114;SDS011;5097;43.260;27.812;2023-04-24T06:10:04;13.80;;;6.70;;
10114;SDS011;5097;43.260;27.812;2023-04-24T06:12:55;12.03;;;6.20;;
10114;SDS011;5097;43.260;27.812;2023-04-24T06:15:44;10.60;;;6.50;;
10114;SDS011;5097;43.260;27.812;2023-04-24T06:18:37;18.03;;;6.57;;
10114;SDS011;5097;43.260;27.812;2023-04-24T06:21:20;14.83;;;7.80;;
10114;SDS011;5097;43.260;27.812;2023-04-24T06:24:06;10.77;;;6.17;;
10114;SDS011;5097;43.260;27.812;2023-04-24T06:26:50;17.47;;;6.53;;
10114;SDS011;5097;43.260;27.812;2023-04-24T06:29:34;13.10;;;5.73;;
10114;SDS011;5097;43.260;27.812;2023-04-24T06:32:20;12.77;;;6.17;;
10114;SDS011;5097;43.260;27.812;2023-04-24T06:35:05;18.53;;;6.50;;
10114;SDS011;5097;43.260;27.812;2023-04-24T06:37:50;16.37;;;11.23;;
10114;SDS011;5097;43.260;27.812;2023-04-24T06:40:36;10.43;;;5.70;;
10114;SDS011;5097;43.260;27.812;2023-04-24T06:43:21;7.67;;;6.37;;
10114;SDS011;5097;43.260;27.812;2023-04-24T06:46:05;14.30;;;7.63;;
10114;SDS011;5097;43.260;27.812;2023-04-24T06:48:49;13.90;;;7.80;;
10114;SDS011;5097;43.260;27.812;2023-04-24T06:51:33;10.87;;;6.20;;
10114;SDS011;5097;43.260;27.812;2023-04-24T06:54:17;15.27;;;10.77;;
10114;SDS011;5097;43.260;27.812;2023-04-24T06:57:02;7.77;;;6.07;;
10114;SDS011;5097;43.260;27.812;2023-04-24T06:59:46;15.97;;;5.50;;
10114;SDS011;5097;43.260;27.812;2023-04-24T07:02:30;9.60;;;5.40;;
10114;SDS011;5097;43.260;27.812;2023-04-24T07:05:14;9.77;;;5.13;;
10114;SDS011;5097;43.260;27.812;2023-04-24T07:08:02;7.17;;;4.80;;
10114;SDS011;5097;43.260;27.812;2023-04-24T07:10:47;9.93;;;4.70;;
10114;SDS011;5097;43.260;27.812;2023-04-24T07:13:32;9.90;;;4.90;;
10114;SDS011;5097;43.260;27.812;2023-04-24T07:16:17;9.77;;;4.60;;
10114;SDS011;5097;43.260;27.812;2023-04-24T07:19:01;13.50;;;4.73;;
10114;SDS011;5097;43.260;27.812;2023-04-24T07:21:46;13.37;;;4.53;;
10114;SDS011;5097;43.260;27.812;2023-04-24T07:24:30;10.50;;;4.77;;
10114;SDS011;5097;43.260;27.812;2023-04-24T07:27:15;9.90;;;5.87;;
10114;SDS011;5097;43.260;27.812;2023-04-24T07:30:00;12.37;;;6.40;;
10114;SDS011;5097;43.260;27.812;2023-04-24T07:32:47;7.80;;;5.43;;
10114;SDS011;5097;43.260;27.812;2023-04-24T07:35:31;8.33;;;4.53;;
10114;SDS011;5097;43.260;27.812;2023-04-24T07:38:16;8.07;;;4.40;;
10114;SDS011;5097;43.260;27.812;2023-04-24T07:41:02;7.80;;;4.10;;
10114;SDS011;5097;43.260;27.812;2023-04-24T07:43:46;8.35;;;5.07;;
10114;SDS011;5097;43.260;27.812;2023-04-24T07:46:32;8.63;;;5.03;;
10114;SDS011;5097;43.260;27.812;2023-04-24T07:49:16;22.30;;;13.23;;
10114;SDS011;5097;43.260;27.812;2023-04-24T07:52:01;14.47;;;5.20;;
10114;SDS011;5097;43.260;27.812;2023-04-24T07:54:45;11.10;;;4.33;;
10114;SDS011;5097;43.260;27.812;2023-04-24T07:57:29;6.83;;;4.80;;
10114;SDS011;5097;43.260;27.812;2023-04-24T08:00:13;15.97;;;8.37;;
10114;SDS011;5097;43.260;27.812;2023-04-24T08:02:59;18.93;;;5.27;;
10114;SDS011;5097;43.260;27.812;2023-04-24T08:05:43;14.80;;;4.17;;
10114;SDS011;5097;43.260;27.812;2023-04-24T08:08:27;9.45;;;4.40;;
10114;SDS011;5097;43.260;27.812;2023-04-24T08:11:12;13.93;;;7.57;;
10114;SDS011;5097;43.260;27.812;2023-04-24T08:13:56;13.23;;;7.10;;
10114;SDS011;5097;43.260;27.812;2023-04-24T08:16:40;15.83;;;8.13;;
10114;SDS011;5097;43.260;27.812;2023-04-24T08:19:25;9.73;;;6.45;;
10114;SDS011;5097;43.260;27.812;2023-04-24T08:22:09;17.30;;;8.77;;
10114;SDS011;5097;43.260;27.812;2023-04-24T08:24:53;7.55;;;4.10;;
10114;SDS011;5097;43.260;27.812;2023-04-24T08:27:38;8.38;;;4.68;;
10114;SDS011;5097;43.260;27.812;2023-04-24T08:30:22;12.93;;;5.47;;
10114;SDS011;5097;43.260;27.812;2023-04-24T08:33:06;8.23;;;4.07;;
10114;SDS011;5097;43.260;27.812;2023-04-24T08:35:52;7.65;;;4.70;;
10114;SDS011;5097;43.260;27.812;2023-04-24T08:38:36;11.25;;;8.30;;
10114;SDS011;5097;43.260;27.812;2023-04-24T08:41:22;5.93;;;4.90;;
10114;SDS011;5097;43.260;27.812;2023-04-24T08:44:08;5.60;;;3.90;;
10114;SDS011;5097;43.260;27.812;2023-04-24T08:46:52;10.68;;;4.90;;
10114;SDS011;5097;43.260;27.812;2023-04-24T08:49:37;6.50;;;4.00;;
10114;SDS011;5097;43.260;27.812;2023-04-24T08:52:23;7.75;;;3.90;;
10114;SDS011;5097;43.260;27.812;2023-04-24T08:55:10;6.53;;;4.25;;
10114;SDS011;5097;43.260;27.812;2023-04-24T08:57:54;16.83;;;4.20;;
10114;SDS011;5097;43.260;27.812;2023-04-24T09:00:38;11.00;;;4.93;;
10114;SDS011;5097;43.260;27.812;2023-04-24T09:03:29;9.63;;;4.22;;
10114;SDS011;5097;43.260;27.812;2023-04-24T09:06:14;10.60;;;4.43;;
10114;SDS011;5097;43.260;27.812;2023-04-24T09:09:01;8.63;;;4.20;;
10114;SDS011;5097;43.260;27.812;2023-04-24T09:11:45;7.97;;;3.92;;
10114;SDS011;5097;43.260;27.812;2023-04-24T09:14:30;7.05;;;3.92;;
10114;SDS011;5097;43.260;27.812;2023-04-24T09:17:15;6.78;;;4.15;;
10114;SDS011;5097;43.260;27.812;2023-04-24T09:19:59;9.93;;;4.78;;
10114;SDS011;5097;43.260;27.812;2023-04-24T09:22:44;10.23;;;4.45;;
10114;SDS011;5097;43.260;27.812;2023-04-24T09:25:32;9.43;;;3.80;;
10114;SDS011;5097;43.260;27.812;2023-04-24T09:28:17;8.45;;;4.10;;
10114;SDS011;5097;43.260;27.812;2023-04-24T09:31:05;8.38;;;3.95;;
10114;SDS011;5097;43.260;27.812;2023-04-24T09:33:53;9.65;;;4.88;;
10114;SDS011;5097;43.260;27.812;2023-04-24T09:36:41;8.27;;;4.53;;
10114;SDS011;5097;43.260;27.812;2023-04-24T09:39:26;9.60;;;4.32;;
10114;SDS011;5097;43.260;27.812;2023-04-24T09:42:11;6.23;;;4.33;;
10114;SDS011;5097;43.260;27.812;2023-04-24T09:44:55;6.93;;;3.93;;
10114;SDS011;5097;43.260;27.812;2023-04-24T09:47:55;11.20;;;4.33;;
10114;SDS011;5097;43.260;27.812;2023-04-24T09:50:39;7.97;;;3.90;;
10114;SDS011;5097;43.260;27.812;2023-04-24T09:53:29;7.28;;;3.80;;
10114;SDS011;5097;43.260;27.812;2023-04-24T09:56:17;6.68;;;3.22;;
10114;SDS011;5097;43.260;27.812;2023-04-24T09:59:07;9.05;;;4.38;;
10114;SDS011;5097;43.260;27.812;2023-04-24T10:01:51;5.85;;;4.10;;
10114;SDS011;5097;43.260;27.812;2023-04-24T10:04:35;8.85;;;4.55;;
10114;SDS011;5097;43.260;27.812;2023-04-24T10:07:19;7.35;;;3.35;;
10114;SDS011;5097;43.260;27.812;2023-04-24T10:10:03;7.55;;;4.30;;
10114;SDS011;5097;43.260;27.812;2023-04-24T10:12:49;7.43;;;3.70;;
10114;SDS011;5097;43.260;27.812;2023-04-24T10:15:36;5.38;;;3.40;;
10114;SDS011;5097;43.260;27.812;2023-04-24T10:18:20;6.93;;;3.60;;
10114;SDS011;5097;43.260;27.812;2023-04-24T10:21:05;6.15;;;4.35;;
10114;SDS011;5097;43.260;27.812;2023-04-24T10:23:49;6.45;;;3.92;;
10114;SDS011;5097;43.260;27.812;2023-04-24T10:26:34;6.80;;;3.63;;
10114;SDS011;5097;43.260;27.812;2023-04-24T10:29:19;6.13;;;3.90;;
10114;SDS011;5097;43.260;27.812;2023-04-24T10:32:06;4.70;;;3.50;;
10114;SDS011;5097;43.260;27.812;2023-04-24T10:34:51;10.13;;;3.30;;
10114;SDS011;5097;43.260;27.812;2023-04-24T10:37:37;7.45;;;3.80;;
10114;SDS011;5097;43.260;27.812;2023-04-24T10:40:25;10.25;;;3.65;;
10114;SDS011;5097;43.260;27.812;2023-04-24T10:43:10;6.70;;;3.88;;
10114;SDS011;5097;43.260;27.812;2023-04-24T10:46:00;8.57;;;3.22;;
10114;SDS011;5097;43.260;27.812;2023-04-24T10:48:51;8.20;;;3.63;;
10114;SDS011;5097;43.260;27.812;2023-04-24T10:51:44;6.43;;;3.28;;
10114;SDS011;5097;43.260;27.812;2023-04-24T10:54:33;6.18;;;3.40;;
10114;SDS011;5097;43.260;27.812;2023-04-24T10:57:28;5.15;;;3.47;;
10114;SDS011;5097;43.260;27.812;2023-04-24T11:00:14;10.98;;;3.65;;
10114;SDS011;5097;43.260;27.812;2023-04-24T11:03:00;5.10;;;3.13;;
10114;SDS011;5097;43.260;27.812;2023-04-24T11:05:52;4.82;;;3.63;;
10114;SDS011;5097;43.260;27.812;2023-04-24T11:08:42;8.57;;;4.18;;
10114;SDS011;5097;43.260;27.812;2023-04-24T11:11:28;6.22;;;3.15;;
10114;SDS011;5097;43.260;27.812;2023-04-24T11:14:14;8.98;;;4.40;;
10114;SDS011;5097;43.260;27.812;2023-04-24T11:16:58;11.07;;;3.70;;
10114;SDS011;5097;43.260;27.812;2023-04-24T11:19:43;5.55;;;3.83;;
10114;SDS011;5097;43.260;27.812;2023-04-24T11:22:38;5.07;;;3.80;;
10114;SDS011;5097;43.260;27.812;2023-04-24T11:25:23;11.90;;;6.18;;
10114;SDS011;5097;43.260;27.812;2023-04-24T11:28:07;9.98;;;4.05;;
10114;SDS011;5097;43.260;27.812;2023-04-24T11:30:58;5.63;;;3.08;;
10114;SDS011;5097;43.260;27.812;2023-04-24T11:33:42;7.60;;;4.20;;
10114;SDS011;5097;43.260;27.812;2023-04-24T11:36:26;6.80;;;3.55;;
10114;SDS011;5097;43.260;27.812;2023-04-24T11:39:11;8.55;;;4.10;;
10114;SDS011;5097;43.260;27.812;2023-04-24T11:42:01;6.88;;;3.60;;
10114;SDS011;5097;43.260;27.812;2023-04-24T11:44:46;8.25;;;3.88;;
10114;SDS011;5097;43.260;27.812;2023-04-24T11:47:30;7.78;;;4.55;;
10114;SDS011;5097;43.260;27.812;2023-04-24T11:50:16;5.55;;;3.50;;
10114;SDS011;5097;43.260;27.812;2023-04-24T11:53:01;6.43;;;3.67;;
10114;SDS011;5097;43.260;27.812;2023-04-24T11:55:48;8.02;;;3.63;;
10114;SDS011;5097;43.260;27.812;2023-04-24T11:58:34;6.80;;;3.90;;
10114;SDS011;5097;43.260;27.812;2023-04-24T12:01:18;15.40;;;4.57;;
10114;SDS011;5097;43.260;27.812;2023-04-24T12:04:03;5.50;;;4.25;;
10114;SDS011;5097;43.260;27.812;2023-04-24T12:06:59;6.88;;;3.90;;
10114;SDS011;5097;43.260;27.812;2023-04-24T12:09:43;5.63;;;3.50;;
10114;SDS011;5097;43.260;27.812;2023-04-24T12:12:30;5.05;;;4.05;;
10114;SDS011;5097;43.260;27.812;2023-04-24T12:15:15;10.13;;;3.70;;
10114;SDS011;5097;43.260;27.812;2023-04-24T12:18:00;8.55;;;3.75;;
10114;SDS011;5097;43.260;27.812;2023-04-24T12:20:44;6.25;;;3.53;;
10114;SDS011;5097;43.260;27.812;2023-04-24T12:23:34;9.10;;;4.20;;
10114;SDS011;5097;43.260;27.812;2023-04-24T12:26:19;9.20;;;4.70;;
10114;SDS011;5097;43.260;27.812;2023-04-24T12:29:06;8.35;;;3.90;;
10114;SDS011;5097;43.260;27.812;2023-04-24T12:31:51;6.47;;;3.17;;
10114;SDS011;5097;43.260;27.812;2023-04-24T12:34:35;8.77;;;3.30;;
10114;SDS011;5097;43.260;27.812;2023-04-24T12:37:19;5.68;;;3.90;;
10114;SDS011;5097;43.260;27.812;2023-04-24T12:40:04;6.40;;;3.25;;
10114;SDS011;5097;43.260;27.812;2023-04-24T12:42:51;7.18;;;4.18;;
10114;SDS011;5097;43.260;27.812;2023-04-24T12:45:40;5.60;;;3.75;;
10114;SDS011;5097;43.260;27.812;2023-04-24T12:48:24;5.20;;;3.72;;
10114;SDS011;5097;43.260;27.812;2023-04-24T12:51:08;9.90;;;3.90;;
10114;SDS011;5097;43.260;27.812;2023-04-24T12:53:53;6.00;;;3.65;;
10114;SDS011;5097;43.260;27.812;2023-04-24T12:56:37;4.80;;;3.33;;
10114;SDS011;5097;43.260;27.812;2023-04-24T12:59:21;6.22;;;3.22;;
10114;SDS011;5097;43.260;27.812;2023-04-24T13:02:07;5.07;;;3.33;;
10114;SDS011;5097;43.260;27.812;2023-04-24T13:04:52;8.25;;;3.60;;
10114;SDS011;5097;43.260;27.812;2023-04-24T13:07:37;7.82;;;4.10;;
10114;SDS011;5097;43.260;27.812;2023-04-24T13:10:21;4.35;;;3.95;;
10114;SDS011;5097;43.260;27.812;2023-04-24T13:13:05;5.70;;;3.33;;
10114;SDS011;5097;43.260;27.812;2023-04-24T13:15:49;6.13;;;3.63;;
10114;SDS011;5097;43.260;27.812;2023-04-24T13:18:35;8.25;;;3.90;;
10114;SDS011;5097;43.260;27.812;2023-04-24T13:21:19;7.72;;;3.70;;
10114;SDS011;5097;43.260;27.812;2023-04-24T13:24:03;10.68;;;4.53;;
10114;SDS011;5097;43.260;27.812;2023-04-24T13:26:49;8.90;;;4.38;;
10114;SDS011;5097;43.260;27.812;2023-04-24T13:29:33;7.90;;;4.35;;
10114;SDS011;5097;43.260;27.812;2023-04-24T13:32:18;7.28;;;4.28;;
10114;SDS011;5097;43.260;27.812;2023-04-24T13:35:03;5.68;;;4.13;;
10114;SDS011;5097;43.260;27.812;2023-04-24T13:37:48;8.77;;;4.38;;
10114;SDS011;5097;43.260;27.812;2023-04-24T13:40:32;8.98;;;4.40;;
10114;SDS011;5097;43.260;27.812;2023-04-24T13:43:17;6.85;;;4.70;;
10114;SDS011;5097;43.260;27.812;2023-04-24T13:46:01;6.93;;;4.22;;
10114;SDS011;5097;43.260;27.812;2023-04-24T13:48:45;7.90;;;4.03;;
10114;SDS011;5097;43.260;27.812;2023-04-24T13:51:30;8.85;;;4.75;;
10114;SDS011;5097;43.260;27.812;2023-04-24T13:54:14;9.68;;;4.60;;
10114;SDS011;5097;43.260;27.812;2023-04-24T13:56:58;6.72;;;3.80;;
10114;SDS011;5097;43.260;27.812;2023-04-24T13:59:42;10.15;;;4.78;;
10114;SDS011;5097;43.260;27.812;2023-04-24T14:02:27;9.65;;;4.22;;
10114;SDS011;5097;43.260;27.812;2023-04-24T14:05:12;10.55;;;4.90;;
10114;SDS011;5097;43.260;27.812;2023-04-24T14:07:57;8.50;;;3.83;;
10114;SDS011;5097;43.260;27.812;2023-04-24T14:10:42;12.85;;;7.55;;
10114;SDS011;5097;43.260;27.812;2023-04-24T14:13:26;7.45;;;4.55;;
10114;SDS011;5097;43.260;27.812;2023-04-24T14:16:10;9.45;;;4.40;;
10114;SDS011;5097;43.260;27.812;2023-04-24T14:18:55;11.07;;;5.80;;
10114;SDS011;5097;43.260;27.812;2023-04-24T14:21:39;8.90;;;4.60;;
10114;SDS011;5097;43.260;27.812;2023-04-24T14:24:24;8.98;;;4.10;;
10114;SDS011;5097;43.260;27.812;2023-04-24T14:27:08;11.07;;;4.60;;
10114;SDS011;5097;43.260;27.812;2023-04-24T14:29:53;8.73;;;4.38;;
10114;SDS011;5097;43.260;27.812;2023-04-24T14:32:37;10.13;;;3.53;;
10114;SDS011;5097;43.260;27.812;2023-04-24T14:35:22;8.23;;;4.57;;
10114;SDS011;5097;43.260;27.812;2023-04-24T14:38:06;6.70;;;4.53;;
10114;SDS011;5097;43.260;27.812;2023-04-24T14:40:51;9.57;;;3.90;;
10114;SDS011;5097;43.260;27.812;2023-04-24T14:43:38;8.07;;;4.43;;
10114;SDS011;5097;43.260;27.812;2023-04-24T14:46:22;6.80;;;4.10;;
10114;SDS011;5097;43.260;27.812;2023-04-24T14:49:06;8.00;;;4.13;;
10114;SDS011;5097;43.260;27.812;2023-04-24T14:51:51;5.73;;;3.97;;
10114;SDS011;5097;43.260;27.812;2023-04-24T14:54:35;8.10;;;4.47;;
10114;SDS011;5097;43.260;27.812;2023-04-24T14:57:21;8.90;;;5.13;;
10114;SDS011;5097;43.260;27.812;2023-04-24T15:00:06;7.90;;;4.00;;
10114;SDS011;5097;43.260;27.812;2023-04-24T15:02:52;11.03;;;4.77;;
10114;SDS011;5097;43.260;27.812;2023-04-24T15:05:38;6.27;;;4.30;;
10114;SDS011;5097;43.260;27.812;2023-04-24T15:08:22;10.10;;;5.17;;
10114;SDS011;5097;43.260;27.812;2023-04-24T15:11:06;15.83;;;5.20;;
10114;SDS011;5097;43.260;27.812;2023-04-24T15:13:51;9.03;;;4.87;;
10114;SDS011;5097;43.260;27.812;2023-04-24T15:16:35;8.40;;;4.03;;
10114;SDS011;5097;43.260;27.812;2023-04-24T15:19:19;9.67;;;3.97;;
10114;SDS011;5097;43.260;27.812;2023-04-24T15:22:03;7.17;;;4.23;;
10114;SDS011;5097;43.260;27.812;2023-04-24T15:24:47;10.97;;;4.70;;
10114;SDS011;5097;43.260;27.812;2023-04-24T15:27:38;5.63;;;3.80;;
10114;SDS011;5097;43.260;27.812;2023-04-24T15:30:25;9.30;;;5.93;;
10114;SDS011;5097;43.260;27.812;2023-04-24T15:33:09;11.23;;;5.30;;
10114;SDS011;5097;43.260;27.812;2023-04-24T15:35:54;9.93;;;4.90;;
10114;SDS011;5097;43.260;27.812;2023-04-24T15:38:38;6.90;;;4.43;;
10114;SDS011;5097;43.260;27.812;2023-04-24T15:41:22;6.37;;;4.37;;
10114;SDS011;5097;43.260;27.812;2023-04-24T15:44:06;8.63;;;4.80;;
10114;SDS011;5097;43.260;27.812;2023-04-24T15:46:51;9.93;;;5.03;;
10114;SDS011;5097;43.260;27.812;2023-04-24T15:49:35;10.83;;;5.10;;
10114;SDS011;5097;43.260;27.812;2023-04-24T15:52:19;10.17;;;4.60;;
10114;SDS011;5097;43.260;27.812;2023-04-24T15:55:04;9.07;;;4.55;;
10114;SDS011;5097;43.260;27.812;2023-04-24T15:57:49;7.40;;;4.50;;
10114;SDS011;5097;43.260;27.812;2023-04-24T16:00:33;10.88;;;4.85;;
10114;SDS011;5097;43.260;27.812;2023-04-24T16:03:19;8.90;;;5.00;;
10114;SDS011;5097;43.260;27.812;2023-04-24T16:06:04;11.23;;;5.00;;
10114;SDS011;5097;43.260;27.812;2023-04-24T16:08:48;9.02;;;5.32;;
10114;SDS011;5097;43.260;27.812;2023-04-24T16:11:32;9.43;;;5.07;;
10114;SDS011;5097;43.260;27.812;2023-04-24T16:14:17;11.23;;;5.00;;
10114;SDS011;5097;43.260;27.812;2023-04-24T16:17:01;8.67;;;4.37;;
10114;SDS011;5097;43.260;27.812;2023-04-24T16:19:47;6.63;;;4.47;;
10114;SDS011;5097;43.260;27.812;2023-04-24T16:22:31;8.43;;;4.90;;
10114;SDS011;5097;43.260;27.812;2023-04-24T16:25:15;7.23;;;5.13;;
10114;SDS011;5097;43.260;27.812;2023-04-24T16:27:59;13.03;;;7.97;;
10114;SDS011;5097;43.260;27.812;2023-04-24T16:30:43;11.50;;;7.70;;